Time;durP1;ratioP1;P1;durP2;ratioP2;P2;SDS_P1;SDS_P2;PMS_P1;PMS_P2;Temp;Humidity;BMP_temperature;BMP_pressure;BME280_temperature;BME280_humidity;BME280_pressure;Samples;Min_cycle;Max_cycle;Signal;HPM_P1;HPM_P2
2021/04/20 00:02:33;;;;;;;18.87;16.77;;;;;;;7.32;81.68;99229.84;5019979;28;20234;-81
2021/04/20 00:05:27;;;;;;;19.70;16.63;;;;;;;7.25;82.33;99221.03;5042316;28;20213;-81
2021/04/20 00:08:37;;;;;;;22.03;17.97;;;;;;;7.24;82.40;99213.25;5052962;28;20232;-82
2021/04/20 00:11:39;;;;;;;19.97;17.80;;;;;;;7.19;82.41;99205.06;5036179;28;20231;-83
2021/04/20 00:14:29;;;;;;;20.33;17.67;;;;;;;7.25;81.54;99213.03;5034377;28;20292;-82
2021/04/20 00:17:24;;;;;;;19.73;16.87;;;;;;;7.19;82.24;99211.19;5017855;28;20294;-79
2021/04/20 00:20:22;;;;;;;19.37;17.27;;;;;;;7.24;82.42;99218.56;5034837;28;20226;-80
2021/04/20 00:23:18;;;;;;;20.77;17.40;;;;;;;7.36;81.62;99208.94;5018576;28;20252;-80
2021/04/20 00:26:17;;;;;;;21.80;17.70;;;;;;;7.27;81.50;99205.69;5054393;28;20210;-80
2021/04/20 00:29:13;;;;;;;19.17;17.07;;;;;;;7.32;81.79;99213.88;5067921;28;20232;-80
2021/04/20 00:32:07;;;;;;;18.53;16.47;;;;;;;7.32;82.03;99208.53;5043720;28;20316;-82
2021/04/20 00:35:14;;;;;;;18.90;16.13;;;;;;;7.46;80.32;99204.00;5048150;28;20221;-80
2021/04/20 00:38:32;;;;;;;20.40;16.90;;;;;;;7.51;80.43;99202.31;5079188;28;20224;-80
2021/04/20 00:41:33;;;;;;;20.90;16.40;;;;;;;7.52;80.43;99197.78;5070119;28;20282;-81
2021/04/20 00:44:25;;;;;;;19.73;16.53;;;;;;;7.47;80.04;99193.09;5032993;28;20686;-82
2021/04/20 00:47:17;;;;;;;17.70;15.80;;;;;;;7.48;80.46;99194.75;5034299;28;20233;-79
2021/04/20 00:50:16;;;;;;;20.50;16.67;;;;;;;7.50;80.61;99192.69;5048692;28;20316;-80
2021/04/20 00:53:10;;;;;;;19.00;16.07;;;;;;;7.49;80.31;99191.06;5046757;28;20229;-81
2021/04/20 00:56:18;;;;;;;18.97;16.47;;;;;;;7.68;79.75;99204.53;5053372;28;20244;-80
2021/04/20 00:59:28;;;;;;;18.33;15.90;;;;;;;7.72;79.78;99201.22;5052790;28;20265;-82
2021/04/20 01:02:22;;;;;;;17.83;15.87;;;;;;;7.62;79.86;99184.03;5050750;28;20221;-80
2021/04/20 01:05:11;;;;;;;20.20;15.70;;;;;;;7.69;79.13;99193.66;5066750;28;20562;-79
2021/04/20 01:08:12;;;;;;;18.10;15.30;;;;;;;7.83;79.04;99203.22;5046293;28;20241;-80
2021/04/20 01:11:10;;;;;;;18.87;16.13;;;;;;;7.73;79.17;99191.38;5032087;28;20246;-80
2021/04/20 01:14:08;;;;;;;18.27;16.23;;;;;;;7.81;78.72;99193.78;5024552;28;20294;-82
2021/04/20 01:17:11;;;;;;;19.17;15.80;;;;;;;7.72;78.90;99185.22;5043903;28;20236;-80
2021/04/20 01:20:10;;;;;;;18.10;16.03;;;;;;;7.76;78.91;99191.75;5065158;28;20644;-80
2021/04/20 01:23:04;;;;;;;17.63;15.57;;;;;;;7.77;78.87;99182.75;5047995;28;20248;-82
2021/04/20 01:26:06;;;;;;;18.23;16.17;;;;;;;7.73;79.36;99200.19;5041533;28;20528;-79
2021/04/20 01:29:13;;;;;;;18.03;16.13;;;;;;;7.72;78.60;99187.06;5040727;28;20598;-81
2021/04/20 01:32:10;;;;;;;19.90;15.80;;;;;;;7.81;79.30;99189.28;5049885;28;20529;-81
2021/04/20 01:35:00;;;;;;;20.00;16.90;;;;;;;7.86;79.31;99191.31;5064471;28;20648;-80
2021/04/20 01:37:55;;;;;;;20.67;16.90;;;;;;;7.79;79.60;99187.88;5060653;28;20232;-80
2021/04/20 01:40:48;;;;;;;18.53;16.63;;;;;;;7.67;80.06;99182.38;5071485;28;20623;-80
2021/04/20 01:43:50;;;;;;;18.67;16.60;;;;;;;7.80;80.40;99197.47;5072039;28;20224;-82
2021/04/20 01:46:58;;;;;;;20.07;17.00;;;;;;;7.86;80.23;99191.31;5064218;28;20233;-80
2021/04/20 01:49:53;;;;;;;19.03;16.50;;;;;;;7.80;80.78;99192.16;5068793;28;20223;-81
2021/04/20 01:52:55;;;;;;;17.70;15.80;;;;;;;7.86;80.56;99199.31;5070501;28;20272;-79
2021/04/20 01:55:47;;;;;;;19.30;16.07;;;;;;;7.80;81.10;99184.97;5071304;28;20229;-81
2021/04/20 01:58:46;;;;;;;20.37;16.90;;;;;;;7.77;81.01;99179.25;5085451;28;20236;-82
2021/04/20 02:02:02;;;;;;;19.33;16.10;;;;;;;7.77;80.89;99188.06;5085642;28;20289;-80
2021/04/20 02:05:03;;;;;;;19.50;16.73;;;;;;;7.76;81.67;99190.94;5085850;28;20244;-81
2021/04/20 02:08:18;;;;;;;18.90;15.97;;;;;;;7.73;81.71;99188.72;5086651;28;20251;-83
2021/04/20 02:11:22;;;;;;;20.10;16.23;;;;;;;7.71;81.53;99185.41;5087649;28;20224;-79
2021/04/20 02:14:21;;;;;;;18.10;15.93;;;;;;;7.74;81.85;99179.69;5087609;28;20662;-80
2021/04/20 02:17:14;;;;;;;20.43;16.33;;;;;;;7.71;81.98;99191.56;5073481;28;20504;-83
2021/04/20 02:20:35;;;;;;;18.80;15.87;;;;;;;7.77;82.24;99188.06;5089507;28;20232;-79
2021/04/20 02:24:02;;;;;;;17.40;15.23;;;;;;;7.68;81.89;99175.19;5089657;28;20240;-79
2021/04/20 02:27:14;;;;;;;16.93;14.50;;;;;;;7.66;83.13;99183.38;5090017;28;20227;-80
2021/04/20 02:30:31;;;;;;;16.47;13.83;;;;;;;7.72;82.33;99190.56;5091582;28;20201;-80
2021/04/20 02:33:41;;;;;;;16.67;14.53;;;;;;;7.63;82.57;99188.34;5078907;28;20229;-79
2021/04/20 02:36:47;;;;;;;14.57;12.77;;;;;;;7.68;82.23;99180.53;5071188;23;20661;-80
2021/04/20 02:40:00;;;;;;;15.67;13.97;;;;;;;7.53;83.59;99167.44;5056143;28;20553;-80
2021/04/20 02:43:06;;;;;;;15.83;14.03;;;;;;;7.58;83.02;99180.16;5039028;28;20221;-81
2021/04/20 02:46:13;;;;;;;15.93;13.70;;;;;;;7.48;83.83;99167.25;5060005;28;20262;-83
2021/04/20 02:49:25;;;;;;;15.47;13.83;;;;;;;7.56;83.02;99169.69;5073163;28;20228;-82
2021/04/20 02:52:29;;;;;;;14.07;12.47;;;;;;;7.62;82.49;99176.03;5090821;28;20210;-83
2021/04/20 02:55:54;;;;;;;14.93;12.87;;;;;;;7.59;82.50;99173.78;5090630;28;20228;-79
2021/04/20 02:58:58;;;;;;;14.40;12.50;;;;;;;7.60;82.39;99162.94;5090561;28;20230;-83
2021/04/20 03:01:46;;;;;;;12.47;11.17;;;;;;;7.57;82.68;99162.50;5039297;28;20233;-83
2021/04/20 03:05:06;;;;;;;13.17;11.53;;;;;;;7.56;82.25;99161.69;5065810;23;20228;-82
2021/04/20 03:08:04;;;;;;;12.60;11.30;;;;;;;7.64;81.90;99158.81;5080227;28;20304;-83
2021/04/20 03:10:55;;;;;;;12.93;11.50;;;;;;;7.65;81.74;99160.41;5108247;28;20244;-80
2021/04/20 03:14:08;;;;;;;12.53;11.23;;;;;;;7.59;81.33;99155.94;5078814;28;20216;-82
2021/04/20 03:17:26;;;;;;;12.10;10.87;;;;;;;7.73;80.70;99157.53;5110128;28;20228;-82
2021/04/20 03:20:22;;;;;;;13.07;10.83;;;;;;;7.60;80.68;99133.59;5068987;23;20253;-82
2021/04/20 03:23:46;;;;;;;11.70;10.50;;;;;;;7.76;80.24;99150.94;5038542;28;20227;-80
2021/04/20 03:27:00;;;;;;;12.37;10.80;;;;;;;7.69;80.73;99166.16;5036126;28;20237;-80
2021/04/20 03:30:00;;;;;;;12.13;10.83;;;;;;;7.65;81.43;99160.41;5050253;28;20233;-82
2021/04/20 03:33:19;;;;;;;13.80;11.80;;;;;;;7.64;80.52;99166.81;5046006;28;20246;-83
2021/04/20 03:36:31;;;;;;;13.30;11.63;;;;;;;7.78;79.16;99152.38;5033006;28;20238;-81
2021/04/20 03:39:38;;;;;;;13.53;11.30;;;;;;;7.76;79.99;99148.28;5034827;28;20245;-83
2021/04/20 03:43:01;;;;;;;11.83;10.43;;;;;;;7.79;79.77;99158.53;5047526;28;20229;-80
2021/04/20 03:46:16;;;;;;;11.07;9.90;;;;;;;7.78;79.52;99154.22;5026884;28;20227;-80
2021/04/20 03:49:31;;;;;;;11.30;9.87;;;;;;;7.73;79.00;99146.03;5025322;28;20226;-83
2021/04/20 03:52:37;;;;;;;12.27;10.67;;;;;;;7.86;79.11;99157.44;4996374;28;20290;-81
2021/04/20 03:55:34;;;;;;;13.30;11.20;;;;;;;7.86;79.29;99154.78;5012331;28;20232;-80
2021/04/20 03:58:30;;;;;;;14.10;11.30;;;;;;;7.86;79.02;99154.78;5027625;28;20638;-80
2021/04/20 04:01:31;;;;;;;12.87;11.47;;;;;;;7.78;79.51;99154.22;5036249;28;20248;-79
2021/04/20 04:04:31;;;;;;;13.40;11.67;;;;;;;7.86;79.29;99156.63;5016393;28;20226;-83
2021/04/20 04:07:42;;;;;;;12.90;11.50;;;;;;;8.01;78.69;99162.50;5036592;28;20218;-79
2021/04/20 04:10:54;;;;;;;13.00;11.53;;;;;;;7.96;78.48;99159.66;5046552;28;20233;-80
2021/04/20 04:13:52;;;;;;;13.67;11.83;;;;;;;7.98;78.43;99153.06;5035080;28;20312;-79
2021/04/20 04:17:16;;;;;;;14.07;11.40;;;;;;;7.96;78.76;99165.81;5035199;28;20225;-81
2021/04/20 04:20:29;;;;;;;14.73;12.10;;;;;;;7.96;78.32;99162.31;5056144;28;20237;-82
2021/04/20 04:24:01;;;;;;;13.43;11.37;;;;;;;7.98;78.70;99163.72;5046696;28;20230;-81
2021/04/20 04:27:16;;;;;;;15.97;12.93;;;;;;;8.07;78.42;99172.31;5048622;28;20243;-81
2021/04/20 04:30:19;;;;;;;16.73;13.67;;;;;;;8.24;77.29;99172.63;5050790;28;20244;-82
2021/04/20 04:33:45;;;;;;;16.13;13.43;;;;;;;8.15;78.20;99173.91;5047932;28;20226;-82
2021/04/20 04:36:34;;;;;;;14.67;13.07;;;;;;;8.13;78.16;99175.97;5014820;28;20307;-80
2021/04/20 04:39:52;;;;;;;16.60;13.53;;;;;;;8.18;77.50;99176.16;5041719;28;20233;-81
2021/04/20 04:43:04;;;;;;;15.57;13.47;;;;;;;8.20;78.08;99180.25;5065635;28;20295;-80
2021/04/20 04:46:21;;;;;;;16.37;13.07;;;;;;;8.15;77.10;99171.25;5051203;28;20223;-80
2021/04/20 04:49:42;;;;;;;14.80;12.93;;;;;;;8.27;76.69;99177.53;5048862;28;20561;-83
2021/04/20 04:52:30;;;;;;;16.07;13.70;;;;;;;8.23;76.96;99182.47;5047344;28;20230;-82
2021/04/20 04:55:30;;;;;;;15.93;13.40;;;;;;;8.20;76.75;99182.91;5042535;28;20290;-79
2021/04/20 04:58:30;;;;;;;15.43;12.93;;;;;;;8.26;76.39;99184.69;5069010;28;20227;-79
2021/04/20 05:01:45;;;;;;;15.73;13.93;;;;;;;8.17;76.57;99180.66;5052290;28;20217;-80
2021/04/20 05:04:46;;;;;;;17.97;14.03;;;;;;;8.19;76.59;99183.94;5064007;28;20218;-79
2021/04/20 05:08:10;;;;;;;16.50;13.80;;;;;;;8.24;76.62;99177.97;5034578;28;20220;-80
2021/04/20 05:11:24;;;;;;;15.90;13.50;;;;;;;8.22;76.76;99194.19;5055638;28;20241;-79
2021/04/20 05:14:26;;;;;;;15.80;13.73;;;;;;;8.29;76.32;99186.16;5018573;28;20672;-79
2021/04/20 05:17:22;;;;;;;16.87;14.70;;;;;;;8.18;76.64;99168.13;5066344;28;20192;-83
2021/04/20 05:20:34;;;;;;;17.87;14.43;;;;;;;8.45;76.09;99190.16;5038511;28;20222;-80
2021/04/20 05:23:31;;;;;;;16.83;14.07;;;;;;;8.56;75.35;99192.97;5028593;28;20283;-82
2021/04/20 05:26:35;;;;;;;16.30;13.30;;;;;;;8.68;75.80;99185.03;5040115;28;20226;-80
2021/04/20 05:29:50;;;;;;;17.17;13.80;;;;;;;8.81;74.41;99191.13;5063635;28;20249;-83
2021/04/20 05:32:58;;;;;;;16.50;13.60;;;;;;;8.84;74.30;99185.34;5045052;28;20208;-80
2021/04/20 05:36:09;;;;;;;16.90;13.47;;;;;;;8.81;74.44;99183.09;5032453;28;20220;-82
2021/04/20 05:39:23;;;;;;;16.73;14.03;;;;;;;8.82;74.70;99199.94;4999876;28;20228;-79
2021/04/20 05:42:19;;;;;;;15.63;12.97;;;;;;;8.71;75.10;99179.28;5085011;28;20247;-80
2021/04/20 05:45:15;;;;;;;13.63;11.27;;;;;;;8.81;74.81;99188.44;5074417;28;20278;-79
2021/04/20 05:48:05;;;;;;;12.47;10.97;;;;;;;8.83;74.16;99193.56;5040913;28;20230;-79
2021/04/20 05:51:13;;;;;;;12.53;10.93;;;;;;;8.82;73.96;99198.06;5064847;28;20206;-80
2021/04/20 05:54:13;;;;;;;11.97;10.63;;;;;;;8.69;74.25;99203.53;5073878;28;20633;-82
2021/04/20 05:57:15;;;;;;;13.00;10.60;;;;;;;8.67;74.78;99205.63;5087836;28;20217;-79
2021/04/20 06:00:30;;;;;;;11.67;10.30;;;;;;;8.56;75.77;99211.66;5072050;28;20221;-80
2021/04/20 06:03:22;;;;;;;10.97;9.83;;;;;;;8.60;75.62;99207.50;5087763;28;20594;-79
2021/04/20 06:06:30;;;;;;;11.83;10.43;;;;;;;8.55;75.13;99215.34;5078936;28;20272;-79
2021/04/20 06:09:21;;;;;;;12.07;10.77;;;;;;;8.53;75.60;99197.91;5067660;28;20229;-80
2021/04/20 06:12:24;;;;;;;10.93;9.70;;;;;;;8.59;75.64;99215.72;5020432;28;20245;-79
2021/04/20 06:15:18;;;;;;;12.00;10.37;;;;;;;8.63;74.77;99220.41;5050815;28;20240;-80
2021/04/20 06:18:26;;;;;;;12.07;10.63;;;;;;;8.69;74.86;99230.25;5034530;28;20771;-80
2021/04/20 06:21:46;;;;;;;11.87;10.50;;;;;;;8.62;75.25;99218.81;5053906;28;20237;-82
2021/04/20 06:24:35;;;;;;;11.97;10.50;;;;;;;8.51;75.69;99200.78;5069972;28;20256;-82
2021/04/20 06:27:38;;;;;;;12.97;10.87;;;;;;;8.70;76.29;99236.41;5055180;28;20252;-82
2021/04/20 06:30:32;;;;;;;13.57;11.27;;;;;;;8.68;75.73;99230.44;5041708;28;20658;-82
2021/04/20 06:33:31;;;;;;;13.70;11.43;;;;;;;8.69;75.78;99224.91;5061454;28;20298;-82
2021/04/20 06:36:18;;;;;;;12.70;11.33;;;;;;;8.73;75.98;99233.28;5053705;28;20221;-83
2021/04/20 06:39:07;;;;;;;14.27;11.73;;;;;;;8.65;76.13;99226.38;5054678;28;20229;-81
2021/04/20 06:41:53;;;;;;;14.67;13.17;;;;;;;8.70;75.53;99229.22;5036095;28;20244;-82
2021/04/20 06:45:09;;;;;;;14.73;11.93;;;;;;;8.79;76.00;99238.59;5050020;28;20252;-80
2021/04/20 06:47:59;;;;;;;13.23;11.83;;;;;;;8.77;75.45;99221.94;5057566;28;20227;-82
2021/04/20 06:50:55;;;;;;;14.07;12.03;;;;;;;8.91;75.03;99229.88;5065769;28;20246;-81
2021/04/20 06:53:50;;;;;;;13.60;12.03;;;;;;;8.92;74.83;99236.84;5020064;28;20232;-82
2021/04/20 06:56:38;;;;;;;15.53;12.50;;;;;;;9.11;74.07;99247.38;5047790;28;20221;-81
2021/04/20 06:59:46;;;;;;;17.70;13.63;;;;;;;8.99;74.68;99246.44;5047524;28;20255;-82
2021/04/20 07:02:41;;;;;;;15.90;12.93;;;;;;;9.00;75.74;99244.59;5064743;28;20225;-82
2021/04/20 07:05:11;;;;;;;18.03;14.50;;;;;;;9.04;74.82;99243.13;5029921;28;20233;-82
2021/04/20 07:08:10;;;;;;;18.27;14.60;;;;;;;9.12;74.67;99246.34;5029184;28;20253;-81
2021/04/20 07:10:44;;;;;;;16.80;14.13;;;;;;;9.16;73.88;99241.34;5046523;28;20301;-82
2021/04/20 07:13:20;;;;;;;17.20;14.67;;;;;;;9.06;74.36;99225.81;5046385;28;20244;-82
2021/04/20 07:15:56;;;;;;;17.90;15.13;;;;;;;9.37;73.71;99242.81;5048891;28;20726;-82
2021/04/20 07:18:29;;;;;;;17.70;14.77;;;;;;;9.45;73.55;99246.00;5031724;28;20233;-81
2021/04/20 07:21:20;;;;;;;16.50;14.57;;;;;;;9.60;73.01;99246.47;5036573;28;20234;-82
2021/04/20 07:24:17;;;;;;;18.17;15.40;;;;;;;9.54;72.50;99234.00;5030745;28;20233;-81
2021/04/20 07:27:26;;;;;;;18.70;15.73;;;;;;;9.51;73.01;99255.84;5065274;28;20267;-80
2021/04/20 07:30:34;;;;;;;20.80;16.67;;;;;;;9.49;73.04;99249.06;5051409;28;20257;-83
2021/04/20 07:33:26;;;;;;;21.27;17.17;;;;;;;9.54;73.19;99247.34;5026399;28;20293;-82
2021/04/20 07:36:29;;;;;;;20.30;17.03;;;;;;;9.65;73.37;99254.66;5065650;28;20225;-82
2021/04/20 07:39:30;;;;;;;21.77;18.10;;;;;;;9.63;73.06;99250.56;5065287;28;20248;-81
2021/04/20 07:42:52;;;;;;;22.93;17.50;;;;;;;9.54;72.78;99233.16;5067505;28;20241;-82
2021/04/20 07:45:50;;;;;;;21.97;18.40;;;;;;;9.69;72.68;99252.34;5061716;28;20235;-81
2021/04/20 07:48:58;;;;;;;23.13;18.23;;;;;;;9.76;72.07;99250.41;5056229;28;20533;-82
2021/04/20 07:51:43;;;;;;;24.10;17.97;;;;;;;9.83;72.31;99253.84;5068367;28;20228;-80
2021/04/20 07:54:50;;;;;;;24.33;18.47;;;;;;;9.89;72.21;99255.59;5084715;28;20232;-81
2021/04/20 07:57:44;;;;;;;23.60;19.23;;;;;;;9.95;71.10;99248.53;5078404;28;20277;-80
2021/04/20 08:00:17;;;;;;;25.47;19.27;;;;;;;9.96;70.47;99250.16;5047289;28;20268;-83
2021/04/20 08:02:58;;;;;;;23.27;19.60;;;;;;;10.06;70.41;99255.81;5045878;28;20640;-82
2021/04/20 08:06:07;;;;;;;21.93;18.33;;;;;;;10.19;69.92;99254.84;5050720;28;20237;-80
2021/04/20 08:09:13;;;;;;;21.27;18.73;;;;;;;10.19;69.61;99254.84;5033867;28;20261;-81
2021/04/20 08:12:31;;;;;;;22.93;18.93;;;;;;;10.54;68.28;99253.16;5048687;28;20267;-79
2021/04/20 08:15:43;;;;;;;24.33;18.77;;;;;;;10.78;67.85;99251.34;5003254;28;20230;-80
2021/04/20 08:18:54;;;;;;;22.70;18.47;;;;;;;10.87;67.57;99250.75;5046205;28;20261;-83
2021/04/20 08:21:57;;;;;;;23.03;18.83;;;;;;;11.19;66.11;99248.59;5068246;28;20239;-81
2021/04/20 08:24:58;;;;;;;22.97;18.70;;;;;;;11.38;65.42;99257.34;5044189;28;20257;-81
2021/04/20 08:27:51;;;;;;;23.00;19.20;;;;;;;11.59;64.63;99245.19;5011477;28;20237;-80
2021/04/20 08:30:43;;;;;;;22.77;17.93;;;;;;;11.60;64.70;99257.56;5027842;28;20253;-81
2021/04/20 08:33:38;;;;;;;24.60;19.40;;;;;;;11.58;65.15;99256.97;5053912;28;20224;-82
2021/04/20 08:37:06;;;;;;;21.27;18.67;;;;;;;11.62;65.08;99258.94;5069465;28;20232;-80
2021/04/20 08:40:29;;;;;;;22.10;18.27;;;;;;;12.02;63.89;99242.09;5090200;22;20220;-80
2021/04/20 08:43:54;;;;;;;21.37;18.27;;;;;;;12.34;61.91;99254.84;5052968;28;20225;-80
2021/04/20 08:47:01;;;;;;;23.23;19.27;;;;;;;13.00;59.62;99241.72;5041241;28;20284;-82
2021/04/20 08:50:17;;;;;;;23.60;19.33;;;;;;;13.77;57.58;99237.22;5052604;28;20239;-80
2021/04/20 08:53:33;;;;;;;20.87;18.50;;;;;;;14.09;56.28;99248.94;5047353;28;20221;-80
2021/04/20 08:56:41;;;;;;;20.40;18.20;;;;;;;14.80;54.46;99249.72;5063662;28;20248;-80
2021/04/20 08:59:32;;;;;;;19.70;17.67;;;;;;;14.71;54.71;99242.34;5065616;28;20229;-81
2021/04/20 09:02:31;;;;;;;19.77;17.70;;;;;;;14.71;54.33;99239.66;5066596;28;20316;-80
2021/04/20 09:05:34;;;;;;;20.50;18.30;;;;;;;14.00;55.99;99236.97;5064804;28;20683;-80
2021/04/20 09:08:35;;;;;;;21.83;19.33;;;;;;;13.63;57.10;99242.16;5059437;28;20232;-81
2021/04/20 09:11:52;;;;;;;23.27;20.80;;;;;;;13.42;57.55;99242.13;5052397;28;20224;-80
2021/04/20 09:14:58;;;;;;;23.57;20.57;;;;;;;13.10;58.12;99231.97;5066110;28;20229;-81
2021/04/20 09:18:01;;;;;;;22.97;20.57;;;;;;;12.68;59.59;99233.41;5061772;28;20225;-82
2021/04/20 09:21:12;;;;;;;24.47;21.57;;;;;;;12.62;60.20;99237.06;5056297;28;20285;-81
2021/04/20 09:24:13;;;;;;;25.00;21.93;;;;;;;12.31;60.46;99224.97;5049377;28;20226;-79
2021/04/20 09:27:51;;;;;;;23.50;21.00;;;;;;;12.01;62.10;99243.16;5064695;28;20670;-82
2021/04/20 09:30:51;;;;;;;25.50;21.77;;;;;;;11.93;61.97;99248.91;5046937;28;20589;-82
2021/04/20 09:33:47;;;;;;;24.37;21.57;;;;;;;11.96;61.86;99249.22;5066252;28;20235;-80
2021/04/20 09:36:23;;;;;;;26.80;22.57;;;;;;;11.64;63.24;99232.69;5046733;28;20233;-82
2021/04/20 09:39:20;;;;;;;26.50;23.27;;;;;;;11.69;62.97;99245.41;5055464;28;20210;-81
2021/04/20 09:42:17;;;;;;;26.83;23.63;;;;;;;12.28;61.95;99250.41;5057216;28;20217;-79
2021/04/20 09:45:21;;;;;;;26.57;23.67;;;;;;;12.63;59.74;99241.38;5058994;28;20244;-80
2021/04/20 09:48:16;;;;;;;28.87;23.23;;;;;;;12.97;58.62;99234.16;5062075;28;20225;-80
2021/04/20 09:51:13;;;;;;;25.63;22.83;;;;;;;13.36;57.96;99248.50;5062522;28;20232;-80
2021/04/20 09:54:30;;;;;;;25.80;22.57;;;;;;;13.54;57.66;99242.84;5053242;28;20222;-81
2021/04/20 09:57:16;;;;;;;24.23;21.63;;;;;;;14.01;56.39;99248.56;4940228;28;20233;-80
2021/04/20 10:00:09;;;;;;;25.40;21.20;;;;;;;14.13;55.03;99241.19;5047796;28;20225;-81
2021/04/20 10:03:20;;;;;;;24.67;21.77;;;;;;;14.49;53.99;99247.81;5045881;28;20217;-79
2021/04/20 10:06:33;;;;;;;25.60;22.90;;;;;;;14.79;52.93;99242.69;5063211;28;20228;-80
2021/04/20 10:09:30;;;;;;;24.40;21.90;;;;;;;15.30;52.14;99252.00;5043340;28;20354;-81
2021/04/20 10:12:38;;;;;;;24.23;21.70;;;;;;;14.77;52.96;99241.34;5034050;28;20500;-80
2021/04/20 10:15:39;;;;;;;24.30;21.87;;;;;;;14.83;52.67;99240.31;5052054;28;20248;-81
2021/04/20 10:18:32;;;;;;;23.97;21.37;;;;;;;14.69;53.35;99226.44;5027348;28;20280;-81
2021/04/20 10:21:49;;;;;;;23.73;21.23;;;;;;;14.84;53.75;99240.06;5044061;28;20244;-80
2021/04/20 10:24:34;;;;;;;24.60;22.03;;;;;;;15.38;51.74;99229.97;5042385;28;20260;-81
2021/04/20 10:27:23;;;;;;;25.13;22.43;;;;;;;15.84;49.67;99224.84;5029256;28;20257;-79
2021/04/20 10:30:12;;;;;;;25.07;22.57;;;;;;;16.33;48.29;99233.38;5042943;28;20229;-79
2021/04/20 10:33:01;;;;;;;23.83;21.33;;;;;;;16.74;47.74;99223.50;5040554;28;20227;-80
2021/04/20 10:35:51;;;;;;;23.50;21.20;;;;;;;16.36;47.89;99234.75;5041202;28;20255;-80
2021/04/20 10:38:39;;;;;;;22.50;20.27;;;;;;;16.44;48.53;99224.22;5055490;28;20227;-84
2021/04/20 10:41:39;;;;;;;23.33;20.93;;;;;;;16.84;47.12;99219.97;5040174;28;20577;-80
2021/04/20 10:44:25;;;;;;;22.77;20.30;;;;;;;17.02;47.44;99214.84;5054987;28;20222;-81
2021/04/20 10:47:11;;;;;;;21.63;19.47;;;;;;;16.64;46.62;99218.88;5036822;28;20950;-83
2021/04/20 10:49:57;;;;;;;23.13;20.70;;;;;;;16.51;46.04;99238.31;5006227;28;20232;-81
2021/04/20 10:52:36;;;;;;;22.53;20.27;;;;;;;16.00;48.11;99221.13;5034662;28;20328;-81
2021/04/20 10:55:16;;;;;;;22.33;20.13;;;;;;;15.58;48.54;99223.09;5035794;28;20645;-79
2021/04/20 10:58:08;;;;;;;23.97;21.43;;;;;;;15.73;48.17;99207.75;5041080;28;20236;-80
2021/04/20 11:01:03;;;;;;;23.33;21.03;;;;;;;15.44;48.34;99203.81;5026049;28;20575;-78
2021/04/20 11:03:54;;;;;;;24.37;21.87;;;;;;;15.71;48.06;99204.53;5040642;28;20219;-78
2021/04/20 11:07:20;;;;;;;22.93;20.63;;;;;;;16.15;46.98;99202.25;5040371;28;20223;-80
2021/04/20 11:10:05;;;;;;;22.70;20.40;;;;;;;16.57;45.70;99180.41;5053825;28;20306;-79
2021/04/20 11:12:50;;;;;;;22.93;20.73;;;;;;;17.26;42.70;99185.31;5036697;28;20223;-81
2021/04/20 11:15:35;;;;;;;20.57;18.47;;;;;;;16.63;45.39;99192.09;5039858;28;20956;-81
2021/04/20 11:18:16;;;;;;;18.83;16.97;;;;;;;16.42;47.39;99176.91;5022488;28;20255;-81
2021/04/20 11:20:56;;;;;;;19.37;17.47;;;;;;;16.51;46.78;99192.34;5053475;28;20226;-82
2021/04/20 11:24:00;;;;;;;19.50;17.60;;;;;;;16.35;47.42;99185.25;5053044;28;20217;-80
2021/04/20 11:26:42;;;;;;;19.10;17.07;;;;;;;16.22;48.11;99185.78;5034560;28;20717;-81
2021/04/20 11:29:40;;;;;;;22.93;18.10;;;;;;;16.51;47.67;99170.69;5046426;28;20512;-80
2021/04/20 11:32:28;;;;;;;18.93;16.90;;;;;;;16.74;46.57;99169.38;5035808;28;20563;-80
2021/04/20 11:35:14;;;;;;;19.57;17.50;;;;;;;16.70;45.72;99160.19;5037911;28;20220;-80
2021/04/20 11:38:02;;;;;;;21.43;17.27;;;;;;;17.34;43.80;99162.28;5035629;28;20644;-79
2021/04/20 11:41:01;;;;;;;19.30;17.40;;;;;;;16.49;43.38;99137.69;5038343;28;20699;-80
2021/04/20 11:43:57;;;;;;;22.20;17.47;;;;;;;17.05;43.81;99138.50;5040189;28;20300;-80
2021/04/20 11:46:42;;;;;;;19.80;17.70;;;;;;;17.77;42.20;99141.84;5039006;28;20244;-79
2021/04/20 11:49:34;;;;;;;18.93;17.17;;;;;;;18.54;40.96;99141.09;5047904;28;20260;-81
2021/04/20 11:52:16;;;;;;;19.50;17.53;;;;;;;18.49;40.06;99146.53;5043663;28;20225;-82
2021/04/20 11:55:04;;;;;;;19.23;17.40;;;;;;;19.47;38.20;99140.78;5038816;28;20233;-81
2021/04/20 11:57:40;;;;;;;25.20;22.23;;;;;;;19.81;37.21;99135.22;5039112;28;20229;-82
2021/04/20 12:00:12;;;;;;;19.77;17.83;;;;;;;19.05;37.81;99129.81;5037691;28;20648;-80
2021/04/20 12:02:52;;;;;;;19.17;17.37;;;;;;;18.79;38.55;99134.66;5029649;28;20227;-81
2021/04/20 12:05:29;;;;;;;17.97;16.33;;;;;;;18.53;39.18;99112.34;5034328;28;20608;-83
2021/04/20 12:08:14;;;;;;;18.87;16.97;;;;;;;19.22;37.59;99127.47;5033637;28;20232;-83
2021/04/20 12:11:03;;;;;;;17.90;16.07;;;;;;;19.56;37.47;99106.44;5038330;28;20221;-80
2021/04/20 12:13:51;;;;;;;15.67;14.17;;;;;;;20.13;36.26;99113.56;5053225;28;20506;-81
2021/04/20 12:16:34;;;;;;;15.97;14.47;;;;;;;20.49;34.80;99108.41;5035565;28;20237;-80
2021/04/20 12:19:17;;;;;;;16.57;14.80;;;;;;;19.73;35.52;99122.28;5035422;28;20625;-80
2021/04/20 12:22:07;;;;;;;16.07;14.67;;;;;;;19.05;36.26;99114.31;5055648;28;20214;-83
2021/04/20 12:24:46;;;;;;;15.90;14.37;;;;;;;18.54;38.02;99103.13;5051440;28;20251;-81
2021/04/20 12:27:25;;;;;;;15.00;13.40;;;;;;;17.97;39.02;99103.78;5037197;28;20221;-83
2021/04/20 12:30:02;;;;;;;9.50;8.60;;;;;;;16.83;49.50;99127.19;5037027;28;20213;-82
2021/04/20 12:32:52;;;;;;;10.50;9.10;;;;;;;15.33;44.15;99145.44;5037074;28;20275;-84
2021/04/20 12:35:35;;;;;;;9.70;8.80;;;;;;;14.38;48.51;99128.31;5038767;28;20224;-80
2021/04/20 12:38:21;;;;;;;10.80;9.70;;;;;;;13.94;53.49;99149.13;5045129;28;20247;-77
2021/04/20 12:41:05;;;;;;;12.10;10.90;;;;;;;13.54;53.78;99127.13;5043617;28;20282;-77
2021/04/20 12:43:52;;;;;;;12.63;11.37;;;;;;;13.12;57.13;99167.19;5059857;28;20231;-77
2021/04/20 12:46:33;;;;;;;14.27;11.63;;;;;;;12.29;57.55;99147.28;5023362;28;20530;-79
2021/04/20 12:49:19;;;;;;;12.97;11.67;;;;;;;12.11;59.61;99177.03;5031832;28;20225;-80
2021/04/20 12:51:57;;;;;;;14.37;11.80;;;;;;;11.72;63.00;99177.84;5066206;28;20232;-80
2021/04/20 12:55:01;;;;;;;17.83;13.60;;;;;;;11.62;69.16;99166.94;5045964;28;20229;-80
2021/04/20 12:57:46;;;;;;;14.03;12.63;;;;;;;11.76;69.08;99149.50;5052102;28;20217;-81
2021/04/20 13:00:35;;;;;;;14.20;12.80;;;;;;;11.99;67.52;99136.00;5051468;28;20234;-80
2021/04/20 13:03:23;;;;;;;15.63;12.67;;;;;;;12.06;68.29;99115.19;5054496;28;20621;-80
2021/04/20 13:06:03;;;;;;;12.80;11.50;;;;;;;12.47;66.44;99123.94;5069299;28;20232;-81
2021/04/20 13:08:55;;;;;;;12.73;11.43;;;;;;;12.65;67.25;99111.06;5069660;28;20225;-80
2021/04/20 13:12:00;;;;;;;12.60;11.40;;;;;;;12.77;68.91;99122.56;5044066;28;20213;-81
2021/04/20 13:15:04;;;;;;;13.33;11.93;;;;;;;13.01;67.61;99115.09;5070874;28;20256;-80
2021/04/20 13:17:54;;;;;;;13.60;12.17;;;;;;;13.15;67.25;99110.22;5083839;22;20224;-80
2021/04/20 13:20:33;;;;;;;12.63;11.43;;;;;;;13.04;67.75;99119.97;5069486;28;20226;-78
2021/04/20 13:23:53;;;;;;;12.20;11.00;;;;;;;13.06;69.00;99117.88;5084820;28;20217;-81
2021/04/20 13:26:37;;;;;;;11.57;10.37;;;;;;;13.18;68.27;99121.28;5080523;28;20237;-81
2021/04/20 13:29:19;;;;;;;12.00;10.90;;;;;;;13.37;69.35;99118.28;5089481;28;20228;-79
2021/04/20 13:32:16;;;;;;;11.70;10.60;;;;;;;13.87;66.51;99118.88;5077576;28;20207;-80
2021/04/20 13:35:06;;;;;;;11.80;10.70;;;;;;;14.27;66.24;99107.72;5056614;28;20671;-82
2021/04/20 13:38:03;;;;;;;10.17;9.17;;;;;;;14.95;61.62;99115.00;5055611;28;20230;-84
2021/04/20 13:40:52;;;;;;;9.43;8.53;;;;;;;15.54;58.42;99111.28;5073148;28;20308;-86
2021/04/20 13:43:38;;;;;;;8.80;7.90;;;;;;;16.15;57.51;99109.53;5067462;28;20218;-83
2021/04/20 13:46:18;;;;;;;8.80;8.00;;;;;;;17.32;55.26;99104.88;5037950;28;20635;-86
2021/04/20 13:49:02;;;;;;;7.97;6.80;;;;;;;17.56;49.99;99093.13;5030495;28;20645;-79